Robertsdale, AL (36567)

6:31 PM CST on March 04, 2015 (GMT -0600)
KALROBER4 | Change Station
CLOSE
Current Station
Personal Weather Station
Location: Robertsdale, AL
Elevation: 156 ft
Nearby Weather Stations
Active Advisory: Dense Fog Advisory Active Notice: Public Information Statement

Elev 156 ft 30.55 °N, 87.70 °W | Updated 11 seconds ago

Overcast
Overcast
72.9 °F
Feels Like 72.9 °F
N
4.5
Wind Variable Wind from SW
Gusts 6.0 mph

Today
High -- | Low -- °F
--% Chance of Precip.
Yesterday
High -- | Low -- °F
Precip. -- in
6:13 AM 5:51 PM
Full, 100% visible
Pressure 29.95 in
Visibility 10.0 miles
Clouds Scattered Clouds 800 ft
Mostly Cloudy 3700 ft
Overcast 8500 ft
Dew Point 70 °F
Humidity 92%
Rainfall 0.00 in
Snow Depth Not available.
UV 0 out of 12
Pollen 9.10 out of 12
Air Quality Not available.
Flu Activity Not available.
METAR KCQF 050015Z AUTO 17011KT 10SM SCT008 BKN037 OVC085 21/20 A2995 RMK AO2

More Conditions Fewer Conditions

Pressure 29.95 in
Visibility 10.0 miles
Clouds Scattered Clouds 800 ft
Mostly Cloudy 3700 ft
Overcast 8500 ft
Dew Point 70 °F
Humidity 92%
Rainfall 0.00 in
Snow Depth Not available.
UV 0 out of 12
Pollen 9.10 out of 12
Air Quality Not available.
Flu Activity Not available.
METAR KCQF 050015Z AUTO 17011KT 10SM SCT008 BKN037 OVC085 21/20 A2995 RMK AO2

More Conditions Fewer Conditions

10-Day Weather Forecast

Almanac

Astronomy

Mar. 04, 2015 Rise Set
Actual Time
Civil Twilight
Nautical Twilight
Astronomical Twilight
Moon
Length of Visible Light
Length of Day
Tomorrow will be .
, % of the Moon is Illuminated

Today's Extremes

State Highs State Lows

Community

WunderPhotos

Upload Photos

1,802,606 photos uploaded!

WunderBlogs® & News

Nearby

Air Quality

  Air Quality AQ Index Pollutant
Not available.

Snow Depth

Station Depth Elevation

Earthquake Activity

City Distance Mag. Time & Date
Minimum magnitude displayed is 2.5.

Coastal Water Temperatures

Place Temperature

Nearby Weather Stations

Dense Fog Advisory
Statement as of 12:06 PM CST on March 04, 2015

... Dense fog advisory in effect from 6 PM this evening to 10 am
CST Thursday...

The National Weather Service in Mobile has issued a dense fog
advisory... which is in effect from 6 PM this evening to 10 am CST
Thursday.

* Visibility... dense fog will redevelop this evening... especially
along and south of the Interstate 10 corridor. Visibilities will be
frequently reduced to one quarter mile or less. The dense fog will
begin to clear Thursday morning as a cold front moves through.

* Impacts... reduced visibility will result in hazardous travel
conditions.

Precautionary/preparedness actions...

A dense fog advisory means visibilities will frequently be
reduced to less than one quarter mile. If driving... slow down... use
your headlights... and leave plenty of distance ahead of you.